createdAt,value
2018-01-27T00:00:43.702Z,104.97
2018-01-27T00:02:44.699Z,105.00
2018-01-27T00:04:50.665Z,95.47
2018-01-27T00:06:56.521Z,87.40
2018-01-27T00:08:59.633Z,106.13
2018-01-27T00:11:12.928Z,105.30
2018-01-27T00:13:17.191Z,120.30
2018-01-27T00:15:19.721Z,97.00
2018-01-27T00:17:21.880Z,102.90
2018-01-27T00:19:23.250Z,91.83
2018-01-27T00:21:24.259Z,96.30
2018-01-27T00:23:26.439Z,99.77
2018-01-27T00:25:27.756Z,101.57
2018-01-27T00:27:34.114Z,101.07
2018-01-27T00:29:35.154Z,92.10
2018-01-27T00:31:36.166Z,93.03
2018-01-27T00:33:37.192Z,96.60
2018-01-27T00:35:38.188Z,89.57
2018-01-27T00:37:42.798Z,91.63
2018-01-27T00:42:25.880Z,86.13
2018-01-27T00:44:26.847Z,97.57
2018-01-27T00:46:29.530Z,93.63
2018-01-27T00:48:30.719Z,111.03
2018-01-27T00:50:44.183Z,88.43
2018-01-27T00:52:46.160Z,104.60
2018-01-27T00:54:47.171Z,100.27
2018-01-27T00:56:48.273Z,123.87
2018-01-27T01:06:33.391Z,96.87
2018-01-27T01:08:34.400Z,111.80
2018-01-27T01:10:36.940Z,110.20
2018-01-27T01:12:38.008Z,115.83
2018-01-27T01:14:39.066Z,98.43
2018-01-27T01:16:41.188Z,105.07
2018-01-27T01:18:42.656Z,118.03
2018-01-27T01:20:44.807Z,112.07
2018-01-27T01:22:45.862Z,111.80
2018-01-27T01:24:47.031Z,110.53
2018-01-27T01:31:48.561Z,93.33
2018-01-27T01:33:49.539Z,107.03
2018-01-27T01:35:53.174Z,91.20
2018-01-27T01:37:54.707Z,96.00
2018-01-27T01:39:55.788Z,85.27
2018-01-27T01:47:02.673Z,88.50
2018-01-27T01:49:16.007Z,89.37
2018-01-27T01:51:17.714Z,91.30
2018-01-27T01:53:21.258Z,93.57
2018-01-27T01:57:48.810Z,94.37
2018-01-27T01:59:49.972Z,86.87
2018-01-27T02:01:50.944Z,97.77
2018-01-27T02:03:51.921Z,83.20
2018-01-27T02:10:58.250Z,85.63
2018-01-27T02:12:59.283Z,79.73
2018-01-27T02:15:00.308Z,75.80
2018-01-27T02:17:03.078Z,78.03
2018-01-27T02:19:14.135Z,85.90
2018-01-27T02:21:20.784Z,69.53
2018-01-27T02:23:21.960Z,78.47
2018-01-27T02:25:23.077Z,76.20
2018-01-27T02:27:27.335Z,91.53
2018-01-27T02:29:28.391Z,81.97
2018-01-27T02:31:29.433Z,79.80
2018-01-27T02:35:59.630Z,77.93
2018-01-27T02:38:03.599Z,89.87
2018-01-27T02:40:04.670Z,81.53
2018-01-27T02:42:05.624Z,74.23
2018-01-27T02:44:07.915Z,99.10
2018-01-27T02:48:47.018Z,85.10
2018-01-27T02:50:50.290Z,86.43
2018-01-27T02:55:06.866Z,67.80
2018-01-27T02:57:09.036Z,68.70
2018-01-27T02:59:10.022Z,83.37
2018-01-27T03:01:11.017Z,90.23
2018-01-27T03:03:12.921Z,81.77
2018-01-27T03:05:13.977Z,76.57
2018-01-27T03:07:14.948Z,96.30
2018-01-27T03:09:19.736Z,88.53
2018-01-27T03:13:55.917Z,92.63
2018-01-27T03:18:24.622Z,77.13
2018-01-27T03:20:25.731Z,83.20
2018-01-27T03:22:26.729Z,81.57
2018-01-27T03:24:30.002Z,91.67
2018-01-27T03:26:32.074Z,93.00
2018-01-27T03:28:33.307Z,94.90
2018-01-27T03:30:34.353Z,88.73
2018-01-27T03:32:35.404Z,84.67
2018-01-27T03:34:55.841Z,102.03
2018-01-27T03:36:57.523Z,90.90
2018-01-27T03:38:58.613Z,105.43
2018-01-27T03:40:59.594Z,101.87
2018-01-27T03:43:00.595Z,95.67
2018-01-27T03:45:01.602Z,105.00
2018-01-27T03:47:02.568Z,103.53
2018-01-27T03:51:31.227Z,90.90
2018-01-27T03:53:33.918Z,108.80
2018-01-27T03:55:55.574Z,101.97
2018-01-27T03:57:59.822Z,109.17
2018-01-27T04:00:27.147Z,78.40
2018-01-27T04:02:30.106Z,79.63
2018-01-27T04:07:09.075Z,72.50
2018-01-27T04:09:21.667Z,92.80
2018-01-27T04:11:25.609Z,102.90
2018-01-27T04:13:26.655Z,125.30
2018-01-27T04:15:27.707Z,99.47
2018-01-27T04:19:57.971Z,101.57
2018-01-27T04:24:26.848Z,115.03
2018-01-27T04:29:15.552Z,110.47
2018-01-27T04:31:17.003Z,95.73
2018-01-27T04:33:24.257Z,120.60
2018-01-27T04:35:25.248Z,115.23
2018-01-27T04:37:26.207Z,120.57
2018-01-27T04:47:45.643Z,108.23
2018-01-27T04:50:00.556Z,113.67
2018-01-27T04:52:01.535Z,107.33
2018-01-27T04:54:05.049Z,123.13
2018-01-27T05:03:29.943Z,96.97
2018-01-27T05:08:08.733Z,120.63
2018-01-27T05:10:29.649Z,117.27
2018-01-27T05:15:09.964Z,96.00
2018-01-27T05:17:19.859Z,101.73
2018-01-27T05:19:20.925Z,99.97
2018-01-27T05:21:21.870Z,108.90
2018-01-27T05:23:29.112Z,104.87
2018-01-27T05:25:30.195Z,115.80
2018-01-27T05:30:00.210Z,95.57
2018-01-27T05:32:01.165Z,98.57
2018-01-27T05:34:02.310Z,113.13
2018-01-27T05:38:38.559Z,110.30
2018-01-27T05:40:43.412Z,96.67
2018-01-27T05:45:30.026Z,84.60
2018-01-27T05:49:59.648Z,92.10
2018-01-27T05:54:29.244Z,110.97
2018-01-27T05:56:30.225Z,104.40
2018-01-27T05:58:31.380Z,94.83
2018-01-27T06:00:38.489Z,86.53
2018-01-27T06:02:39.976Z,86.07
2018-01-27T06:04:40.997Z,89.33
2018-01-27T06:06:42.523Z,76.07
2018-01-27T06:08:43.672Z,90.83
2018-01-27T06:13:14.360Z,81.57
2018-01-27T06:15:23.892Z,81.90
2018-01-27T06:17:34.418Z,83.13
2018-01-27T06:19:35.632Z,78.40
2018-01-27T06:22:00.771Z,83.53
2018-01-27T06:24:01.865Z,87.93
2018-01-27T06:26:02.840Z,77.53
2018-01-27T06:33:07.431Z,59.93
2018-01-27T06:35:08.564Z,58.10
2018-01-27T06:40:00.206Z,60.60
2018-01-27T06:42:02.920Z,75.93
2018-01-27T06:46:36.613Z,72.60
2018-01-27T06:48:39.831Z,63.90
2018-01-27T06:50:40.877Z,68.07
2018-01-27T06:52:43.232Z,56.37
2018-01-27T06:54:44.265Z,79.97
2018-01-27T06:56:46.152Z,70.67
2018-01-27T07:01:28.002Z,75.53
2018-01-27T07:03:32.214Z,70.93
2018-01-27T07:05:33.292Z,69.87
2018-01-27T07:07:47.853Z,78.90
2018-01-27T07:09:48.863Z,62.63
2018-01-27T07:11:49.814Z,75.97
2018-01-27T07:13:53.244Z,89.30
2018-01-27T07:15:54.943Z,78.27
2018-01-27T07:18:17.340Z,85.13
2018-01-27T07:22:46.224Z,73.70
2018-01-27T07:27:09.222Z,76.50
2018-01-27T07:29:10.498Z,86.33
2018-01-27T07:31:11.599Z,81.07
2018-01-27T07:33:12.591Z,84.80
2018-01-27T07:35:13.574Z,69.97
2018-01-27T07:37:14.719Z,85.47
2018-01-27T07:39:15.773Z,90.27
2018-01-27T07:46:22.299Z,68.63
2018-01-27T07:51:09.703Z,71.90
2018-01-27T07:55:38.701Z,72.47
2018-01-27T08:02:45.597Z,68.70
2018-01-27T08:04:46.627Z,64.27
2018-01-27T08:06:47.682Z,90.30
2018-01-27T08:08:48.702Z,77.97
2018-01-27T08:10:49.984Z,79.97
2018-01-27T08:12:50.969Z,86.37
2018-01-27T08:14:51.945Z,84.47
2018-01-27T08:17:02.541Z,78.50
2018-01-27T08:19:03.940Z,88.03
2018-01-27T08:21:04.920Z,74.20
2018-01-27T08:23:05.884Z,86.27
2018-01-27T08:27:39.561Z,74.23
2018-01-27T08:29:40.730Z,78.67
2018-01-27T08:31:43.524Z,83.37
2018-01-27T08:33:44.731Z,79.67
2018-01-27T08:36:11.413Z,77.70
2018-01-27T08:38:12.499Z,78.43
2018-01-27T08:40:40.181Z,92.37
2018-01-27T08:45:09.969Z,76.20
2018-01-27T08:49:48.589Z,85.63
2018-01-27T08:51:49.662Z,79.03
2018-01-27T08:53:50.629Z,86.43
2018-01-27T08:56:11.040Z,74.30
2018-01-27T08:58:12.178Z,81.27
2018-01-27T09:00:15.737Z,98.17
2018-01-27T09:02:17.120Z,93.43
2018-01-27T09:04:20.255Z,98.90
2018-01-27T09:06:21.744Z,101.30
2018-01-27T09:11:13.327Z,93.30
2018-01-27T09:18:23.948Z,117.00
2018-01-27T09:20:24.908Z,117.33
2018-01-27T09:24:53.925Z,115.60
2018-01-27T09:26:55.148Z,105.37
2018-01-27T09:28:56.176Z,133.87
2018-01-27T09:33:25.492Z,109.27
2018-01-27T09:37:54.353Z,106.27
2018-01-27T09:44:51.198Z,108.03
2018-01-27T09:46:53.938Z,122.80
2018-01-27T09:49:11.991Z,123.47
2018-01-27T09:51:26.265Z,100.40
2018-01-27T09:53:27.245Z,116.97
2018-01-27T09:55:28.203Z,115.53
2018-01-27T09:57:29.159Z,109.77
2018-01-27T09:59:54.781Z,113.33
2018-01-27T10:01:55.871Z,122.33
2018-01-27T10:03:56.945Z,118.30
2018-01-27T10:05:57.998Z,135.60
2018-01-27T10:07:59.029Z,128.87
2018-01-27T10:10:00.082Z,124.33
2018-01-27T10:12:01.044Z,120.83
2018-01-27T10:14:03.584Z,123.07
2018-01-27T10:16:05.328Z,111.63
2018-01-27T10:18:06.316Z,112.37
2018-01-27T10:20:07.539Z,120.23
2018-01-27T10:22:08.782Z,113.03
2018-01-27T10:24:09.954Z,109.40
2018-01-27T10:26:13.720Z,98.30
2018-01-27T10:28:15.341Z,109.17
2018-01-27T10:30:16.995Z,104.83
2018-01-27T10:57:01.902Z,84.17
2018-01-27T10:59:03.385Z,94.03
2018-01-27T11:03:33.203Z,80.47
2018-01-27T11:05:34.256Z,77.67
2018-01-27T11:07:35.392Z,82.27
2018-01-27T11:09:36.346Z,89.40
2018-01-27T11:11:37.432Z,89.47
2018-01-27T11:16:06.693Z,93.67
2018-01-27T11:18:08.709Z,83.83
2018-01-27T11:20:25.556Z,88.87
2018-01-27T11:22:26.653Z,77.30
2018-01-27T11:24:28.264Z,80.30
2018-01-27T11:26:30.327Z,77.40
2018-01-27T11:28:31.336Z,74.60
2018-01-27T11:30:32.924Z,72.60
2018-01-27T11:32:33.928Z,74.77
2018-01-27T11:34:36.053Z,71.40
2018-01-27T11:53:40.854Z,72.57
2018-01-27T11:55:56.111Z,59.60
2018-01-27T11:57:57.264Z,79.53
2018-01-27T11:59:58.498Z,63.50
2018-01-27T12:01:59.654Z,74.90
2018-01-27T12:04:00.800Z,69.67
2018-01-27T12:06:01.785Z,76.70
2018-01-27T12:08:02.820Z,146.60
2018-01-27T12:10:03.968Z,76.73
2018-01-27T12:12:05.159Z,65.43
2018-01-27T12:14:10.303Z,67.30
2018-01-27T12:16:21.182Z,69.63
2018-01-27T12:18:22.305Z,67.00
2018-01-27T12:23:07.540Z,95.93
2018-01-27T12:25:17.548Z,72.93
2018-01-27T12:27:18.650Z,70.53
2018-01-27T12:29:28.343Z,70.10
2018-01-27T12:31:31.014Z,81.53
2018-01-27T12:33:32.124Z,85.63
2018-01-27T12:35:33.105Z,72.20
2018-01-27T12:37:43.978Z,72.03
2018-01-27T12:43:07.067Z,66.00
2018-01-27T12:45:21.900Z,74.70
2018-01-27T12:47:23.052Z,76.73
2018-01-27T12:49:24.163Z,65.77
2018-01-27T12:51:27.071Z,61.73
2018-01-27T12:56:10.737Z,59.27
2018-01-27T12:58:15.702Z,56.07
2018-01-27T13:00:28.805Z,49.57
2018-01-27T13:02:30.013Z,58.43
2018-01-27T13:04:40.808Z,66.50
2018-01-27T13:06:41.954Z,72.20
2018-01-27T13:30:45.843Z,62.03
2018-01-27T13:32:55.188Z,62.33
2018-01-27T13:34:56.362Z,69.10
2018-01-27T13:37:01.727Z,65.73
2018-01-27T13:39:02.909Z,55.93
2018-01-27T13:41:04.213Z,62.50
2018-01-27T13:43:05.371Z,69.00
2018-01-27T13:45:06.859Z,66.23
2018-01-27T13:47:08.069Z,61.97
2018-01-27T13:49:09.723Z,55.83
2018-01-27T13:51:10.764Z,59.63
2018-01-27T13:53:18.424Z,53.77
2018-01-27T13:55:19.524Z,58.57
2018-01-27T13:57:20.663Z,62.03
2018-01-27T13:59:21.725Z,66.70
2018-01-27T14:01:22.736Z,62.63
2018-01-27T14:03:23.740Z,67.47
2018-01-27T14:05:24.736Z,69.87
2018-01-27T14:07:26.319Z,74.73
2018-01-27T14:09:27.395Z,68.03
2018-01-27T14:11:28.968Z,66.23
2018-01-27T14:13:30.214Z,77.70
2018-01-27T14:15:33.520Z,74.03
2018-01-27T14:17:34.698Z,64.10
2018-01-27T14:19:35.804Z,72.77
2018-01-27T14:21:36.898Z,77.80
2018-01-27T14:23:37.928Z,65.67
2018-01-27T14:25:38.975Z,71.37
2018-01-27T14:27:39.988Z,83.10
2018-01-27T14:29:41.013Z,72.23
2018-01-27T14:31:42.071Z,68.67
2018-01-27T14:33:43.111Z,71.37
2018-01-27T14:35:44.170Z,67.40
2018-01-27T14:37:45.468Z,66.93
2018-01-27T14:39:47.369Z,67.97
2018-01-27T14:41:48.627Z,64.80
2018-01-27T14:43:50.191Z,65.33
2018-01-27T14:45:51.165Z,72.87
2018-01-27T14:47:52.479Z,64.70
2018-01-27T14:49:53.680Z,66.50
2018-01-27T14:51:54.880Z,67.83
2018-01-27T14:53:57.023Z,67.40
2018-01-27T14:55:58.581Z,74.00
2018-01-27T14:58:00.263Z,60.60
2018-01-27T15:00:01.476Z,59.03
2018-01-27T15:02:02.733Z,64.60
2018-01-27T15:04:04.284Z,57.17
2018-01-27T15:06:06.115Z,60.10
2018-01-27T15:08:07.985Z,54.97
2018-01-27T15:10:09.103Z,57.53
2018-01-27T15:12:10.298Z,61.67
2018-01-27T15:14:12.919Z,63.67
2018-01-27T15:16:15.018Z,66.60
2018-01-27T15:18:16.520Z,57.60
2018-01-27T15:20:17.800Z,54.63
2018-01-27T15:22:19.233Z,53.17
2018-01-27T15:24:22.408Z,57.73
2018-01-27T15:26:25.813Z,49.77
2018-01-27T15:28:27.031Z,55.30
2018-01-27T15:30:34.034Z,51.27
2018-01-27T15:32:35.114Z,49.63
2018-01-27T15:34:36.505Z,57.70
2018-01-27T15:36:40.387Z,52.73
2018-01-27T15:38:43.377Z,52.60
2018-01-27T15:40:44.522Z,58.90
2018-01-27T15:42:46.108Z,56.63
2018-01-27T15:44:47.234Z,69.23
2018-01-27T15:46:48.266Z,54.30
2018-01-27T15:48:50.592Z,68.17
2018-01-27T15:50:51.869Z,57.53
2018-01-27T15:52:53.272Z,57.10
2018-01-27T15:54:54.335Z,59.13
2018-01-27T15:56:55.691Z,63.93
2018-01-27T15:59:12.065Z,70.28
2018-01-27T16:01:13.002Z,73.53
2018-01-27T16:03:13.938Z,61.67
2018-01-27T16:05:14.866Z,58.73
2018-01-27T16:09:34.924Z,59.00
2018-01-27T16:11:35.903Z,56.53
2018-01-27T16:15:58.867Z,61.20
2018-01-27T16:17:59.804Z,58.17
2018-01-27T16:20:00.734Z,70.13
2018-01-27T16:22:02.060Z,74.80
2018-01-27T16:24:03.058Z,67.13
2018-01-27T16:26:04.028Z,57.47
2018-01-27T16:28:06.314Z,67.13
2018-01-27T16:30:14.070Z,55.33
2018-01-27T16:32:15.099Z,61.37
2018-01-27T16:34:16.140Z,61.53
2018-01-27T16:38:38.124Z,61.67
2018-01-27T16:40:39.092Z,53.50
2018-01-27T16:45:14.629Z,53.70
2018-01-27T16:47:15.601Z,56.33
2018-01-27T16:49:25.266Z,55.50
2018-01-27T16:51:26.322Z,53.37
2018-01-27T16:53:27.288Z,53.83
2018-01-27T16:55:28.260Z,52.30
2018-01-27T16:57:29.212Z,51.23
2018-01-27T16:59:30.256Z,60.67
2018-01-27T17:01:31.247Z,54.17
2018-01-27T17:03:32.221Z,52.87
2018-01-27T17:05:33.221Z,50.50
2018-01-27T17:07:34.308Z,48.03
2018-01-27T17:09:35.277Z,64.27
2018-01-27T17:14:03.969Z,38.63
2018-01-27T17:16:07.284Z,43.57
2018-01-27T17:18:35.846Z,41.50
2018-01-27T17:20:37.104Z,41.70
2018-01-27T17:22:40.644Z,42.93
2018-01-27T17:24:41.816Z,44.43
2018-01-27T17:26:42.810Z,46.70
2018-01-27T17:28:43.891Z,45.10
2018-01-27T17:30:45.040Z,38.53
2018-01-27T17:32:46.068Z,45.10
2018-01-27T17:34:47.548Z,41.50
2018-01-27T17:36:48.559Z,29.87
2018-01-27T17:38:49.507Z,38.50
2018-01-27T17:43:17.845Z,35.77
2018-01-27T17:45:18.836Z,37.77
2018-01-27T17:47:19.857Z,29.33
2018-01-27T17:49:20.830Z,38.40
2018-01-27T17:51:35.404Z,39.77
2018-01-27T17:53:36.623Z,35.60
2018-01-27T17:58:05.620Z,36.50
2018-01-27T18:00:06.940Z,29.93
2018-01-27T18:02:08.394Z,35.97
2018-01-27T18:04:09.904Z,36.73
2018-01-27T18:09:19.857Z,30.97
2018-01-27T18:16:21.956Z,35.90
2018-01-27T18:18:22.953Z,31.00
2018-01-27T18:20:24.072Z,32.27
2018-01-27T18:25:23.402Z,19.87
2018-01-27T18:27:24.412Z,27.87
2018-01-27T18:29:25.540Z,25.17
2018-01-27T18:31:26.494Z,23.47
2018-01-27T18:35:55.561Z,24.67
2018-01-27T18:38:20.466Z,25.43
2018-01-27T18:40:22.313Z,27.40
2018-01-27T18:42:23.369Z,27.47
2018-01-27T18:44:25.958Z,23.43
2018-01-27T18:46:52.549Z,23.97
2018-01-27T18:51:30.112Z,28.43
2018-01-27T18:53:31.299Z,26.53
2018-01-27T18:55:32.252Z,22.73
2018-01-27T18:57:33.207Z,24.90
2018-01-27T18:59:34.349Z,27.33
2018-01-27T19:01:38.758Z,25.30
2018-01-27T19:03:39.948Z,23.50
2018-01-27T19:05:40.951Z,27.57
2018-01-27T19:07:41.912Z,30.90
2018-01-27T19:09:53.780Z,29.60
2018-01-27T19:12:03.298Z,27.57
2018-01-27T19:14:04.395Z,24.47
2018-01-27T19:16:05.485Z,28.73
2018-01-27T19:18:06.492Z,29.73
2018-01-27T19:20:10.138Z,24.10
2018-01-27T19:55:29.644Z,26.43
2018-01-27T20:20:27.712Z,29.33
2018-01-27T20:24:56.313Z,23.70
2018-01-27T20:27:17.934Z,30.90
2018-01-27T20:29:19.071Z,29.53
2018-01-27T20:33:48.023Z,22.27
2018-01-27T20:35:51.866Z,21.57
2018-01-27T20:37:54.288Z,20.17
2018-01-27T20:45:10.834Z,19.60
2018-01-27T20:47:13.009Z,22.63
2018-01-27T20:49:17.583Z,29.90
2018-01-27T20:51:18.651Z,24.93
2018-01-27T20:55:47.598Z,16.20
2018-01-27T21:00:21.142Z,19.97
2018-01-27T21:02:22.243Z,20.10
2018-01-27T21:04:47.481Z,21.27
2018-01-27T21:06:49.712Z,24.90
2018-01-27T21:08:50.762Z,21.17
2018-01-27T21:10:51.754Z,22.43
2018-01-27T21:15:37.410Z,18.10
2018-01-27T21:17:48.216Z,19.67
2018-01-27T21:22:16.835Z,25.70
2018-01-27T21:24:17.790Z,16.37
2018-01-27T21:26:18.988Z,25.77
2018-01-27T21:28:29.882Z,17.70
2018-01-27T21:30:34.800Z,19.80
2018-01-27T21:35:05.795Z,15.30
2018-01-27T21:37:06.812Z,11.37
2018-01-27T21:41:46.821Z,13.30
2018-01-27T21:43:47.848Z,13.23
2018-01-27T21:45:50.463Z,14.23
2018-01-27T21:48:07.895Z,12.67
2018-01-27T21:50:10.897Z,17.60
2018-01-27T21:52:22.406Z,14.77
2018-01-27T22:00:21.199Z,10.70
2018-01-27T22:05:00.479Z,10.30
2018-01-27T22:14:54.381Z,14.83
2018-01-27T22:19:26.014Z,7.60
2018-01-27T22:23:55.259Z,9.43
2018-01-27T22:26:01.661Z,12.37
2018-01-27T22:28:12.086Z,12.57
2018-01-27T22:30:14.078Z,13.67
2018-01-27T22:32:15.251Z,5.33
2018-01-27T22:37:04.623Z,5.80
2018-01-27T22:39:06.687Z,8.27
2018-01-27T22:41:08.264Z,6.87
2018-01-27T22:43:10.392Z,7.37
2018-01-27T22:47:52.303Z,4.80
2018-01-27T22:50:03.399Z,3.80
2018-01-27T22:54:56.604Z,5.77
2018-01-27T22:56:58.400Z,5.37
2018-01-27T22:58:59.504Z,7.17
2018-01-27T23:01:25.453Z,7.67
2018-01-27T23:03:26.654Z,4.70
2018-01-27T23:10:25.860Z,5.97
2018-01-27T23:12:27.582Z,8.53
2018-01-27T23:14:56.118Z,8.43
2018-01-27T23:27:13.490Z,3.27
2018-01-27T23:29:18.819Z,5.13
2018-01-27T23:33:47.789Z,8.57
2018-01-27T23:35:48.745Z,5.80
2018-01-27T23:37:49.710Z,7.27
2018-01-27T23:39:50.813Z,7.40
2018-01-27T23:41:51.791Z,9.40
2018-01-27T23:46:21.580Z,4.40
2018-01-27T23:50:59.458Z,5.37
2018-01-27T23:53:00.535Z,7.60
